sensor_id;sensor_type;location;lat;lon;timestamp;temperature;humidity
22212;DHT22;11275;52.488;13.462;2023-07-29T00:00:51;20.00;99.90
22212;DHT22;11275;52.488;13.462;2023-07-29T00:03:17;20.00;99.90
22212;DHT22;11275;52.488;13.462;2023-07-29T00:05:43;19.90;99.90
22212;DHT22;11275;52.488;13.462;2023-07-29T00:08:08;19.90;99.90
22212;DHT22;11275;52.488;13.462;2023-07-29T00:10:37;19.90;99.90
22212;DHT22;11275;52.488;13.462;2023-07-29T00:13:04;19.90;99.90
22212;DHT22;11275;52.488;13.462;2023-07-29T00:15:30;19.90;99.90
22212;DHT22;11275;52.488;13.462;2023-07-29T00:17:55;19.90;99.90
22212;DHT22;11275;52.488;13.462;2023-07-29T00:20:21;19.90;99.90
22212;DHT22;11275;52.488;13.462;2023-07-29T00:22:47;19.90;99.90
22212;DHT22;11275;52.488;13.462;2023-07-29T00:25:15;19.80;99.90
22212;DHT22;11275;52.488;13.462;2023-07-29T00:27:41;19.90;99.90
22212;DHT22;11275;52.488;13.462;2023-07-29T00:30:07;19.80;99.90
22212;DHT22;11275;52.488;13.462;2023-07-29T00:32:35;19.80;99.90
22212;DHT22;11275;52.488;13.462;2023-07-29T00:35:01;19.80;99.90
22212;DHT22;11275;52.488;13.462;2023-07-29T00:37:28;19.80;99.90
22212;DHT22;11275;52.488;13.462;2023-07-29T00:39:54;19.80;99.90
22212;DHT22;11275;52.488;13.462;2023-07-29T00:42:20;19.80;99.90
22212;DHT22;11275;52.488;13.462;2023-07-29T00:44:45;19.80;99.90
22212;DHT22;11275;52.488;13.462;2023-07-29T00:47:11;19.70;99.90
22212;DHT22;11275;52.488;13.462;2023-07-29T00:49:38;19.70;99.90
22212;DHT22;11275;52.488;13.462;2023-07-29T00:52:04;19.70;99.90
22212;DHT22;11275;52.488;13.462;2023-07-29T00:54:30;19.70;99.90
22212;DHT22;11275;52.488;13.462;2023-07-29T00:56:55;19.70;99.90
22212;DHT22;11275;52.488;13.462;2023-07-29T00:59:21;19.70;99.90
22212;DHT22;11275;52.488;13.462;2023-07-29T01:01:48;19.60;99.90
22212;DHT22;11275;52.488;13.462;2023-07-29T01:04:14;19.50;99.90
22212;DHT22;11275;52.488;13.462;2023-07-29T01:07:07;19.50;99.90
22212;DHT22;11275;52.488;13.462;2023-07-29T01:09:58;19.40;99.90
22212;DHT22;11275;52.488;13.462;2023-07-29T01:12:47;19.40;99.90
22212;DHT22;11275;52.488;13.462;2023-07-29T01:17:46;19.40;99.90
22212;DHT22;11275;52.488;13.462;2023-07-29T01:20:16;19.40;99.90
22212;DHT22;11275;52.488;13.462;2023-07-29T01:22:43;19.30;99.90
22212;DHT22;11275;52.488;13.462;2023-07-29T01:25:09;19.20;99.90
22212;DHT22;11275;52.488;13.462;2023-07-29T01:27:35;19.10;99.90
22212;DHT22;11275;52.488;13.462;2023-07-29T01:30:01;19.10;99.90
22212;DHT22;11275;52.488;13.462;2023-07-29T01:33:01;19.00;99.90
22212;DHT22;11275;52.488;13.462;2023-07-29T01:35:38;19.00;99.90
22212;DHT22;11275;52.488;13.462;2023-07-29T01:38:12;18.90;99.90
22212;DHT22;11275;52.488;13.462;2023-07-29T01:40:40;18.90;99.90
22212;DHT22;11275;52.488;13.462;2023-07-29T01:43:06;18.90;99.90
22212;DHT22;11275;52.488;13.462;2023-07-29T01:45:34;19.00;99.90
22212;DHT22;11275;52.488;13.462;2023-07-29T01:48:04;19.00;99.90
22212;DHT22;11275;52.488;13.462;2023-07-29T01:50:30;19.00;99.90
22212;DHT22;11275;52.488;13.462;2023-07-29T01:52:57;19.00;99.90
22212;DHT22;11275;52.488;13.462;2023-07-29T01:55:23;19.00;99.90
22212;DHT22;11275;52.488;13.462;2023-07-29T01:57:49;19.00;99.90
22212;DHT22;11275;52.488;13.462;2023-07-29T02:00:15;19.00;99.90
22212;DHT22;11275;52.488;13.462;2023-07-29T02:02:41;18.90;99.90
22212;DHT22;11275;52.488;13.462;2023-07-29T02:05:09;18.90;99.90
22212;DHT22;11275;52.488;13.462;2023-07-29T02:07:37;18.90;99.90
22212;DHT22;11275;52.488;13.462;2023-07-29T02:10:03;18.90;99.90
22212;DHT22;11275;52.488;13.462;2023-07-29T02:12:29;18.80;99.90
22212;DHT22;11275;52.488;13.462;2023-07-29T02:14:54;18.90;99.90
22212;DHT22;11275;52.488;13.462;2023-07-29T02:17:20;18.80;99.90
22212;DHT22;11275;52.488;13.462;2023-07-29T02:19:46;18.80;99.90
22212;DHT22;11275;52.488;13.462;2023-07-29T02:22:16;18.80;99.90
22212;DHT22;11275;52.488;13.462;2023-07-29T02:24:42;18.80;99.90
22212;DHT22;11275;52.488;13.462;2023-07-29T02:27:08;18.80;99.90
22212;DHT22;11275;52.488;13.462;2023-07-29T02:29:34;18.80;99.90
22212;DHT22;11275;52.488;13.462;2023-07-29T02:32:00;18.80;99.90
22212;DHT22;11275;52.488;13.462;2023-07-29T02:34:25;18.70;99.90
22212;DHT22;11275;52.488;13.462;2023-07-29T02:36:51;18.70;99.90
22212;DHT22;11275;52.488;13.462;2023-07-29T02:39:17;18.70;99.90
22212;DHT22;11275;52.488;13.462;2023-07-29T02:41:42;18.70;99.90
22212;DHT22;11275;52.488;13.462;2023-07-29T02:44:08;18.70;99.90
22212;DHT22;11275;52.488;13.462;2023-07-29T02:46:34;18.70;99.90
22212;DHT22;11275;52.488;13.462;2023-07-29T02:48:59;18.70;99.90
22212;DHT22;11275;52.488;13.462;2023-07-29T02:51:25;18.70;99.90
22212;DHT22;11275;52.488;13.462;2023-07-29T02:53:51;18.60;99.90
22212;DHT22;11275;52.488;13.462;2023-07-29T02:56:16;18.50;99.90
22212;DHT22;11275;52.488;13.462;2023-07-29T02:58:42;18.50;99.90
22212;DHT22;11275;52.488;13.462;2023-07-29T03:01:07;18.50;99.90
22212;DHT22;11275;52.488;13.462;2023-07-29T03:03:33;18.50;99.90
22212;DHT22;11275;52.488;13.462;2023-07-29T03:06:04;18.50;99.90
22212;DHT22;11275;52.488;13.462;2023-07-29T03:08:31;18.40;99.90
22212;DHT22;11275;52.488;13.462;2023-07-29T03:10:58;18.40;99.90
22212;DHT22;11275;52.488;13.462;2023-07-29T03:13:24;18.40;99.90
22212;DHT22;11275;52.488;13.462;2023-07-29T03:15:49;18.30;99.90
22212;DHT22;11275;52.488;13.462;2023-07-29T03:18:15;18.20;99.90
22212;DHT22;11275;52.488;13.462;2023-07-29T03:20:41;18.10;99.90
22212;DHT22;11275;52.488;13.462;2023-07-29T03:23:07;18.20;99.90
22212;DHT22;11275;52.488;13.462;2023-07-29T03:25:33;18.20;99.90
22212;DHT22;11275;52.488;13.462;2023-07-29T03:27:58;18.20;99.90
22212;DHT22;11275;52.488;13.462;2023-07-29T03:30:24;18.30;99.90
22212;DHT22;11275;52.488;13.462;2023-07-29T03:32:50;18.40;99.90
22212;DHT22;11275;52.488;13.462;2023-07-29T03:35:16;18.40;99.90
22212;DHT22;11275;52.488;13.462;2023-07-29T03:37:42;18.40;99.90
22212;DHT22;11275;52.488;13.462;2023-07-29T03:40:08;18.30;99.90
22212;DHT22;11275;52.488;13.462;2023-07-29T03:42:35;18.30;99.90
22212;DHT22;11275;52.488;13.462;2023-07-29T03:45:01;18.40;99.90
22212;DHT22;11275;52.488;13.462;2023-07-29T03:47:27;18.40;99.90
22212;DHT22;11275;52.488;13.462;2023-07-29T03:49:53;18.40;99.90
22212;DHT22;11275;52.488;13.462;2023-07-29T03:52:18;18.40;99.90
22212;DHT22;11275;52.488;13.462;2023-07-29T03:54:44;18.30;99.90
22212;DHT22;11275;52.488;13.462;2023-07-29T03:57:10;18.30;99.90
22212;DHT22;11275;52.488;13.462;2023-07-29T03:59:36;18.30;99.90
22212;DHT22;11275;52.488;13.462;2023-07-29T04:02:01;18.20;99.90
22212;DHT22;11275;52.488;13.462;2023-07-29T04:04:27;18.10;99.90
22212;DHT22;11275;52.488;13.462;2023-07-29T04:06:53;18.10;99.90
22212;DHT22;11275;52.488;13.462;2023-07-29T04:09:18;18.10;99.90
22212;DHT22;11275;52.488;13.462;2023-07-29T04:11:44;18.20;99.90
22212;DHT22;11275;52.488;13.462;2023-07-29T04:14:09;18.20;99.90
22212;DHT22;11275;52.488;13.462;2023-07-29T04:16:35;18.40;99.90
22212;DHT22;11275;52.488;13.462;2023-07-29T04:19:01;18.50;99.90
22212;DHT22;11275;52.488;13.462;2023-07-29T04:21:27;18.50;99.90
22212;DHT22;11275;52.488;13.462;2023-07-29T04:23:52;18.60;99.90
22212;DHT22;11275;52.488;13.462;2023-07-29T04:26:18;18.60;99.90
22212;DHT22;11275;52.488;13.462;2023-07-29T04:28:44;18.70;99.90
22212;DHT22;11275;52.488;13.462;2023-07-29T04:31:09;18.70;99.90
22212;DHT22;11275;52.488;13.462;2023-07-29T04:33:35;18.70;99.90
22212;DHT22;11275;52.488;13.462;2023-07-29T04:36:00;18.80;99.90
22212;DHT22;11275;52.488;13.462;2023-07-29T04:38:31;18.80;99.90
22212;DHT22;11275;52.488;13.462;2023-07-29T04:41:01;18.80;99.90
22212;DHT22;11275;52.488;13.462;2023-07-29T04:43:31;18.80;99.90
22212;DHT22;11275;52.488;13.462;2023-07-29T04:45:57;18.90;99.90
22212;DHT22;11275;52.488;13.462;2023-07-29T04:48:23;19.00;99.90
22212;DHT22;11275;52.488;13.462;2023-07-29T04:50:49;19.00;99.90
22212;DHT22;11275;52.488;13.462;2023-07-29T04:53:14;19.10;99.90
22212;DHT22;11275;52.488;13.462;2023-07-29T04:55:43;19.10;99.90
22212;DHT22;11275;52.488;13.462;2023-07-29T04:58:09;19.00;99.90
22212;DHT22;11275;52.488;13.462;2023-07-29T05:00:35;19.10;99.90
22212;DHT22;11275;52.488;13.462;2023-07-29T05:03:00;19.00;99.90
22212;DHT22;11275;52.488;13.462;2023-07-29T05:05:27;19.00;99.90
22212;DHT22;11275;52.488;13.462;2023-07-29T05:07:52;19.10;99.90
22212;DHT22;11275;52.488;13.462;2023-07-29T05:10:18;19.10;99.90
22212;DHT22;11275;52.488;13.462;2023-07-29T05:12:45;19.30;99.90
22212;DHT22;11275;52.488;13.462;2023-07-29T05:15:10;19.30;99.90
22212;DHT22;11275;52.488;13.462;2023-07-29T05:17:38;19.30;99.90
22212;DHT22;11275;52.488;13.462;2023-07-29T05:20:05;19.30;99.90
22212;DHT22;11275;52.488;13.462;2023-07-29T05:22:30;19.30;99.90
22212;DHT22;11275;52.488;13.462;2023-07-29T05:24:56;19.30;99.90
22212;DHT22;11275;52.488;13.462;2023-07-29T05:27:22;19.30;99.90
22212;DHT22;11275;52.488;13.462;2023-07-29T05:29:47;19.30;99.90
22212;DHT22;11275;52.488;13.462;2023-07-29T05:32:13;19.40;99.90
22212;DHT22;11275;52.488;13.462;2023-07-29T05:34:38;19.60;99.90
22212;DHT22;11275;52.488;13.462;2023-07-29T05:37:04;19.70;99.90
22212;DHT22;11275;52.488;13.462;2023-07-29T05:39:30;19.90;99.90
22212;DHT22;11275;52.488;13.462;2023-07-29T05:41:57;19.90;99.90
22212;DHT22;11275;52.488;13.462;2023-07-29T05:44:23;20.00;99.90
22212;DHT22;11275;52.488;13.462;2023-07-29T05:46:49;20.00;99.90
22212;DHT22;11275;52.488;13.462;2023-07-29T05:49:14;20.00;99.90
22212;DHT22;11275;52.488;13.462;2023-07-29T05:51:40;19.90;99.90
22212;DHT22;11275;52.488;13.462;2023-07-29T05:54:06;19.90;99.90
22212;DHT22;11275;52.488;13.462;2023-07-29T05:56:31;19.90;99.90
22212;DHT22;11275;52.488;13.462;2023-07-29T05:58:57;19.90;99.90
22212;DHT22;11275;52.488;13.462;2023-07-29T06:01:23;19.90;99.90
22212;DHT22;11275;52.488;13.462;2023-07-29T06:03:48;19.90;99.90
22212;DHT22;11275;52.488;13.462;2023-07-29T06:06:14;19.90;99.90
22212;DHT22;11275;52.488;13.462;2023-07-29T06:08:40;20.00;99.90
22212;DHT22;11275;52.488;13.462;2023-07-29T06:11:05;20.00;99.90
22212;DHT22;11275;52.488;13.462;2023-07-29T06:13:33;20.00;99.90
22212;DHT22;11275;52.488;13.462;2023-07-29T06:15:59;20.10;99.90
22212;DHT22;11275;52.488;13.462;2023-07-29T06:18:25;20.20;99.90
22212;DHT22;11275;52.488;13.462;2023-07-29T06:20:51;20.20;99.90
22212;DHT22;11275;52.488;13.462;2023-07-29T06:23:17;20.20;99.90
22212;DHT22;11275;52.488;13.462;2023-07-29T06:25:42;20.20;99.90
22212;DHT22;11275;52.488;13.462;2023-07-29T06:28:09;20.20;99.90
22212;DHT22;11275;52.488;13.462;2023-07-29T06:30:35;20.20;99.90
22212;DHT22;11275;52.488;13.462;2023-07-29T06:33:00;20.30;99.90
22212;DHT22;11275;52.488;13.462;2023-07-29T06:35:26;20.30;99.90
22212;DHT22;11275;52.488;13.462;2023-07-29T06:37:52;20.40;99.90
22212;DHT22;11275;52.488;13.462;2023-07-29T06:40:17;20.40;99.90
22212;DHT22;11275;52.488;13.462;2023-07-29T06:42:43;20.40;99.90
22212;DHT22;11275;52.488;13.462;2023-07-29T06:45:09;20.40;99.90
22212;DHT22;11275;52.488;13.462;2023-07-29T06:47:35;20.50;99.90
22212;DHT22;11275;52.488;13.462;2023-07-29T06:50:01;20.50;99.90
22212;DHT22;11275;52.488;13.462;2023-07-29T06:52:26;20.60;99.90
22212;DHT22;11275;52.488;13.462;2023-07-29T06:54:53;20.60;99.90
22212;DHT22;11275;52.488;13.462;2023-07-29T06:57:19;20.70;99.90
22212;DHT22;11275;52.488;13.462;2023-07-29T06:59:44;20.80;99.90
22212;DHT22;11275;52.488;13.462;2023-07-29T07:02:10;20.90;99.90
22212;DHT22;11275;52.488;13.462;2023-07-29T07:04:35;21.00;99.90
22212;DHT22;11275;52.488;13.462;2023-07-29T07:07:01;21.10;99.90
22212;DHT22;11275;52.488;13.462;2023-07-29T07:09:27;21.30;99.90
22212;DHT22;11275;52.488;13.462;2023-07-29T07:11:52;21.50;99.90
22212;DHT22;11275;52.488;13.462;2023-07-29T07:14:18;21.70;99.90
22212;DHT22;11275;52.488;13.462;2023-07-29T07:16:44;21.70;99.90
22212;DHT22;11275;52.488;13.462;2023-07-29T07:19:10;21.80;99.90
22212;DHT22;11275;52.488;13.462;2023-07-29T07:21:36;21.90;99.90
22212;DHT22;11275;52.488;13.462;2023-07-29T07:24:02;21.90;99.90
22212;DHT22;11275;52.488;13.462;2023-07-29T07:26:27;21.90;99.90
22212;DHT22;11275;52.488;13.462;2023-07-29T07:28:53;22.00;99.90
22212;DHT22;11275;52.488;13.462;2023-07-29T07:31:19;22.10;99.90
22212;DHT22;11275;52.488;13.462;2023-07-29T07:33:45;22.20;99.90
22212;DHT22;11275;52.488;13.462;2023-07-29T07:36:11;22.30;99.90
22212;DHT22;11275;52.488;13.462;2023-07-29T07:38:37;22.30;99.90
22212;DHT22;11275;52.488;13.462;2023-07-29T07:41:02;22.30;99.90
22212;DHT22;11275;52.488;13.462;2023-07-29T07:43:28;22.20;99.90
22212;DHT22;11275;52.488;13.462;2023-07-29T07:46:01;22.10;99.90
22212;DHT22;11275;52.488;13.462;2023-07-29T07:48:30;22.20;99.90
22212;DHT22;11275;52.488;13.462;2023-07-29T07:50:56;22.40;99.90
22212;DHT22;11275;52.488;13.462;2023-07-29T07:53:21;22.60;99.90
22212;DHT22;11275;52.488;13.462;2023-07-29T07:55:47;22.70;99.90
22212;DHT22;11275;52.488;13.462;2023-07-29T07:58:12;22.80;99.90
22212;DHT22;11275;52.488;13.462;2023-07-29T08:00:38;22.80;99.90
22212;DHT22;11275;52.488;13.462;2023-07-29T08:03:04;22.80;99.90
22212;DHT22;11275;52.488;13.462;2023-07-29T08:05:30;22.80;99.90
22212;DHT22;11275;52.488;13.462;2023-07-29T08:07:56;22.80;99.90
22212;DHT22;11275;52.488;13.462;2023-07-29T08:10:22;22.90;99.90
22212;DHT22;11275;52.488;13.462;2023-07-29T08:12:48;22.80;99.90
22212;DHT22;11275;52.488;13.462;2023-07-29T08:15:13;22.80;99.90
22212;DHT22;11275;52.488;13.462;2023-07-29T08:17:39;22.60;99.90
22212;DHT22;11275;52.488;13.462;2023-07-29T08:20:05;22.70;99.90
22212;DHT22;11275;52.488;13.462;2023-07-29T08:22:31;22.90;99.90
22212;DHT22;11275;52.488;13.462;2023-07-29T08:24:57;23.10;99.90
22212;DHT22;11275;52.488;13.462;2023-07-29T08:27:25;23.30;99.90
22212;DHT22;11275;52.488;13.462;2023-07-29T08:29:51;23.50;99.90
22212;DHT22;11275;52.488;13.462;2023-07-29T08:32:19;23.60;99.90
22212;DHT22;11275;52.488;13.462;2023-07-29T08:34:44;23.50;99.90
22212;DHT22;11275;52.488;13.462;2023-07-29T08:37:10;23.50;99.90
22212;DHT22;11275;52.488;13.462;2023-07-29T08:39:35;23.70;99.90
22212;DHT22;11275;52.488;13.462;2023-07-29T08:42:04;23.70;99.90
22212;DHT22;11275;52.488;13.462;2023-07-29T08:44:36;23.70;99.90
22212;DHT22;11275;52.488;13.462;2023-07-29T08:47:05;23.70;99.90
22212;DHT22;11275;52.488;13.462;2023-07-29T08:49:31;23.70;99.90
22212;DHT22;11275;52.488;13.462;2023-07-29T08:51:58;23.70;99.90
22212;DHT22;11275;52.488;13.462;2023-07-29T08:54:24;23.70;99.90
22212;DHT22;11275;52.488;13.462;2023-07-29T08:56:50;23.80;99.90
22212;DHT22;11275;52.488;13.462;2023-07-29T08:59:16;23.90;99.90
22212;DHT22;11275;52.488;13.462;2023-07-29T09:01:42;24.10;99.90
22212;DHT22;11275;52.488;13.462;2023-07-29T09:04:08;24.20;99.90
22212;DHT22;11275;52.488;13.462;2023-07-29T09:06:35;24.30;99.90
22212;DHT22;11275;52.488;13.462;2023-07-29T09:09:02;24.30;99.90
22212;DHT22;11275;52.488;13.462;2023-07-29T09:11:28;24.40;99.90
22212;DHT22;11275;52.488;13.462;2023-07-29T09:13:54;24.40;99.90
22212;DHT22;11275;52.488;13.462;2023-07-29T09:16:20;24.50;99.90
22212;DHT22;11275;52.488;13.462;2023-07-29T09:18:50;24.50;99.90
22212;DHT22;11275;52.488;13.462;2023-07-29T09:21:25;24.60;99.90
22212;DHT22;11275;52.488;13.462;2023-07-29T09:23:52;24.70;99.90
22212;DHT22;11275;52.488;13.462;2023-07-29T09:26:26;24.60;99.90
22212;DHT22;11275;52.488;13.462;2023-07-29T09:28:56;24.50;99.90
22212;DHT22;11275;52.488;13.462;2023-07-29T09:31:23;24.50;99.90
22212;DHT22;11275;52.488;13.462;2023-07-29T09:33:49;24.60;99.90
22212;DHT22;11275;52.488;13.462;2023-07-29T09:36:15;24.60;99.90
22212;DHT22;11275;52.488;13.462;2023-07-29T09:38:41;24.60;99.90
22212;DHT22;11275;52.488;13.462;2023-07-29T09:41:09;24.70;99.90
22212;DHT22;11275;52.488;13.462;2023-07-29T09:43:36;24.70;99.90
22212;DHT22;11275;52.488;13.462;2023-07-29T09:46:04;24.80;99.90
22212;DHT22;11275;52.488;13.462;2023-07-29T09:48:37;24.80;99.90
22212;DHT22;11275;52.488;13.462;2023-07-29T09:51:13;24.80;99.90
22212;DHT22;11275;52.488;13.462;2023-07-29T09:53:41;24.80;99.90
22212;DHT22;11275;52.488;13.462;2023-07-29T09:56:08;24.80;99.90
22212;DHT22;11275;52.488;13.462;2023-07-29T09:58:33;24.80;99.90
22212;DHT22;11275;52.488;13.462;2023-07-29T10:01:01;24.80;99.90
22212;DHT22;11275;52.488;13.462;2023-07-29T10:03:27;24.90;99.90
22212;DHT22;11275;52.488;13.462;2023-07-29T10:05:55;25.10;99.90
22212;DHT22;11275;52.488;13.462;2023-07-29T10:08:22;25.30;99.90
22212;DHT22;11275;52.488;13.462;2023-07-29T10:10:50;25.40;99.90
22212;DHT22;11275;52.488;13.462;2023-07-29T10:13:16;25.50;99.90
22212;DHT22;11275;52.488;13.462;2023-07-29T10:15:44;25.60;99.90
22212;DHT22;11275;52.488;13.462;2023-07-29T10:18:10;25.70;99.90
22212;DHT22;11275;52.488;13.462;2023-07-29T10:20:37;25.70;99.90
22212;DHT22;11275;52.488;13.462;2023-07-29T10:23:06;25.70;99.90
22212;DHT22;11275;52.488;13.462;2023-07-29T10:25:47;25.80;99.90
22212;DHT22;11275;52.488;13.462;2023-07-29T10:28:12;25.90;99.90
22212;DHT22;11275;52.488;13.462;2023-07-29T10:30:41;25.90;99.90
22212;DHT22;11275;52.488;13.462;2023-07-29T10:33:07;25.80;99.90
22212;DHT22;11275;52.488;13.462;2023-07-29T10:35:34;25.70;99.90
22212;DHT22;11275;52.488;13.462;2023-07-29T10:38:01;25.60;99.90
22212;DHT22;11275;52.488;13.462;2023-07-29T10:40:44;25.50;99.90
22212;DHT22;11275;52.488;13.462;2023-07-29T10:43:11;25.60;99.90
22212;DHT22;11275;52.488;13.462;2023-07-29T10:45:38;25.60;99.90
22212;DHT22;11275;52.488;13.462;2023-07-29T10:48:12;25.60;99.90
22212;DHT22;11275;52.488;13.462;2023-07-29T10:50:37;25.70;99.90
22212;DHT22;11275;52.488;13.462;2023-07-29T10:53:04;25.60;99.90
22212;DHT22;11275;52.488;13.462;2023-07-29T10:55:36;25.70;99.90
22212;DHT22;11275;52.488;13.462;2023-07-29T10:58:07;25.80;99.90
22212;DHT22;11275;52.488;13.462;2023-07-29T11:00:33;26.00;99.90
22212;DHT22;11275;52.488;13.462;2023-07-29T11:03:06;25.90;99.90
22212;DHT22;11275;52.488;13.462;2023-07-29T11:05:43;25.80;99.90
22212;DHT22;11275;52.488;13.462;2023-07-29T11:08:22;25.60;99.90
22212;DHT22;11275;52.488;13.462;2023-07-29T11:11:07;25.50;99.90
22212;DHT22;11275;52.488;13.462;2023-07-29T11:13:35;25.40;99.90
22212;DHT22;11275;52.488;13.462;2023-07-29T11:16:02;25.20;99.90
22212;DHT22;11275;52.488;13.462;2023-07-29T11:18:33;25.20;99.90
22212;DHT22;11275;52.488;13.462;2023-07-29T11:21:00;25.00;99.90
22212;DHT22;11275;52.488;13.462;2023-07-29T11:23:36;24.80;99.90
22212;DHT22;11275;52.488;13.462;2023-07-29T11:26:03;24.70;99.90
22212;DHT22;11275;52.488;13.462;2023-07-29T11:28:30;24.00;99.90
22212;DHT22;11275;52.488;13.462;2023-07-29T11:30:56;23.20;99.90
22212;DHT22;11275;52.488;13.462;2023-07-29T11:33:24;22.50;99.90
22212;DHT22;11275;52.488;13.462;2023-07-29T11:35:50;22.10;99.90
22212;DHT22;11275;52.488;13.462;2023-07-29T11:38:17;22.10;99.90
22212;DHT22;11275;52.488;13.462;2023-07-29T11:40:53;22.20;99.90
22212;DHT22;11275;52.488;13.462;2023-07-29T11:43:18;22.30;99.90
22212;DHT22;11275;52.488;13.462;2023-07-29T11:45:45;22.50;99.90
22212;DHT22;11275;52.488;13.462;2023-07-29T11:48:10;22.60;99.90
22212;DHT22;11275;52.488;13.462;2023-07-29T11:50:36;22.70;99.90
22212;DHT22;11275;52.488;13.462;2023-07-29T11:53:02;22.70;99.90
22212;DHT22;11275;52.488;13.462;2023-07-29T11:55:28;22.80;99.90
22212;DHT22;11275;52.488;13.462;2023-07-29T11:57:54;22.80;99.90
22212;DHT22;11275;52.488;13.462;2023-07-29T12:00:21;22.90;99.90
22212;DHT22;11275;52.488;13.462;2023-07-29T12:02:47;22.90;99.90
22212;DHT22;11275;52.488;13.462;2023-07-29T12:05:14;23.10;99.90
22212;DHT22;11275;52.488;13.462;2023-07-29T12:07:42;23.10;99.90
22212;DHT22;11275;52.488;13.462;2023-07-29T12:10:09;23.20;99.90
22212;DHT22;11275;52.488;13.462;2023-07-29T12:12:48;23.20;99.90
22212;DHT22;11275;52.488;13.462;2023-07-29T12:15:25;23.20;99.90
22212;DHT22;11275;52.488;13.462;2023-07-29T12:17:53;23.20;99.90
22212;DHT22;11275;52.488;13.462;2023-07-29T12:20:20;23.10;99.90
22212;DHT22;11275;52.488;13.462;2023-07-29T12:22:58;23.10;99.90
22212;DHT22;11275;52.488;13.462;2023-07-29T12:25:26;23.00;99.90
22212;DHT22;11275;52.488;13.462;2023-07-29T12:27:51;22.90;99.90
22212;DHT22;11275;52.488;13.462;2023-07-29T12:30:23;22.90;99.90
22212;DHT22;11275;52.488;13.462;2023-07-29T12:32:50;23.00;99.90
22212;DHT22;11275;52.488;13.462;2023-07-29T12:35:16;23.10;99.90
22212;DHT22;11275;52.488;13.462;2023-07-29T12:37:42;23.10;99.90
22212;DHT22;11275;52.488;13.462;2023-07-29T12:42:48;23.20;99.90
22212;DHT22;11275;52.488;13.462;2023-07-29T12:45:16;23.30;99.90
22212;DHT22;11275;52.488;13.462;2023-07-29T12:47:42;23.40;99.90
22212;DHT22;11275;52.488;13.462;2023-07-29T12:50:08;23.60;99.90
22212;DHT22;11275;52.488;13.462;2023-07-29T12:52:33;23.80;99.90
22212;DHT22;11275;52.488;13.462;2023-07-29T12:54:59;24.00;99.90
22212;DHT22;11275;52.488;13.462;2023-07-29T12:57:25;24.20;99.90
22212;DHT22;11275;52.488;13.462;2023-07-29T12:59:50;24.30;99.90
22212;DHT22;11275;52.488;13.462;2023-07-29T13:02:16;24.40;99.90
22212;DHT22;11275;52.488;13.462;2023-07-29T13:04:41;24.30;99.90
22212;DHT22;11275;52.488;13.462;2023-07-29T13:07:07;24.20;99.90
22212;DHT22;11275;52.488;13.462;2023-07-29T13:09:33;24.20;99.90
22212;DHT22;11275;52.488;13.462;2023-07-29T13:11:58;24.10;99.90
22212;DHT22;11275;52.488;13.462;2023-07-29T13:14:24;24.10;99.90
22212;DHT22;11275;52.488;13.462;2023-07-29T13:16:51;24.10;99.90
22212;DHT22;11275;52.488;13.462;2023-07-29T13:19:18;24.10;99.90
22212;DHT22;11275;52.488;13.462;2023-07-29T13:21:44;24.10;99.90
22212;DHT22;11275;52.488;13.462;2023-07-29T13:24:09;24.10;99.90
22212;DHT22;11275;52.488;13.462;2023-07-29T13:26:35;24.10;99.90
22212;DHT22;11275;52.488;13.462;2023-07-29T13:29:01;24.00;99.90
22212;DHT22;11275;52.488;13.462;2023-07-29T13:31:26;24.00;99.90
22212;DHT22;11275;52.488;13.462;2023-07-29T13:33:52;24.00;99.90
22212;DHT22;11275;52.488;13.462;2023-07-29T13:36:17;24.10;99.90
22212;DHT22;11275;52.488;13.462;2023-07-29T13:38:43;24.20;99.90
22212;DHT22;11275;52.488;13.462;2023-07-29T13:41:09;24.40;99.90
22212;DHT22;11275;52.488;13.462;2023-07-29T13:43:34;24.60;99.90
22212;DHT22;11275;52.488;13.462;2023-07-29T13:46:00;24.80;99.90
22212;DHT22;11275;52.488;13.462;2023-07-29T13:48:25;25.00;99.90
22212;DHT22;11275;52.488;13.462;2023-07-29T13:50:51;25.00;99.90
22212;DHT22;11275;52.488;13.462;2023-07-29T13:53:17;25.00;99.90
22212;DHT22;11275;52.488;13.462;2023-07-29T13:55:43;25.10;99.90
22212;DHT22;11275;52.488;13.462;2023-07-29T13:58:09;25.20;99.90
22212;DHT22;11275;52.488;13.462;2023-07-29T14:00:34;25.50;99.90
22212;DHT22;11275;52.488;13.462;2023-07-29T14:03:00;25.60;99.90
22212;DHT22;11275;52.488;13.462;2023-07-29T14:05:26;25.60;99.90
22212;DHT22;11275;52.488;13.462;2023-07-29T14:07:51;25.60;99.90
22212;DHT22;11275;52.488;13.462;2023-07-29T14:10:17;25.60;99.90
22212;DHT22;11275;52.488;13.462;2023-07-29T14:12:42;25.60;99.90
22212;DHT22;11275;52.488;13.462;2023-07-29T14:15:08;25.60;99.90
22212;DHT22;11275;52.488;13.462;2023-07-29T14:17:34;25.60;99.90
22212;DHT22;11275;52.488;13.462;2023-07-29T14:19:59;25.60;99.90
22212;DHT22;11275;52.488;13.462;2023-07-29T14:22:25;25.50;99.90
22212;DHT22;11275;52.488;13.462;2023-07-29T14:24:51;25.40;99.90
22212;DHT22;11275;52.488;13.462;2023-07-29T14:27:16;25.50;99.90
22212;DHT22;11275;52.488;13.462;2023-07-29T14:29:42;25.60;99.90
22212;DHT22;11275;52.488;13.462;2023-07-29T14:32:07;25.60;99.90
22212;DHT22;11275;52.488;13.462;2023-07-29T14:34:33;25.60;99.90
22212;DHT22;11275;52.488;13.462;2023-07-29T14:36:59;25.70;99.90
22212;DHT22;11275;52.488;13.462;2023-07-29T14:39:24;25.80;99.90
22212;DHT22;11275;52.488;13.462;2023-07-29T14:41:50;25.90;99.90
22212;DHT22;11275;52.488;13.462;2023-07-29T14:44:16;25.90;99.90
22212;DHT22;11275;52.488;13.462;2023-07-29T14:46:41;25.90;99.90
22212;DHT22;11275;52.488;13.462;2023-07-29T14:49:07;25.80;99.90
22212;DHT22;11275;52.488;13.462;2023-07-29T14:51:32;25.70;99.90
22212;DHT22;11275;52.488;13.462;2023-07-29T14:53:58;25.60;99.90
22212;DHT22;11275;52.488;13.462;2023-07-29T14:56:24;25.70;99.90
22212;DHT22;11275;52.488;13.462;2023-07-29T14:58:49;25.90;99.90
22212;DHT22;11275;52.488;13.462;2023-07-29T15:01:15;25.90;99.90
22212;DHT22;11275;52.488;13.462;2023-07-29T15:03:41;25.70;99.90
22212;DHT22;11275;52.488;13.462;2023-07-29T15:06:07;25.60;99.90
22212;DHT22;11275;52.488;13.462;2023-07-29T15:08:32;25.40;99.90
22212;DHT22;11275;52.488;13.462;2023-07-29T15:10:58;25.20;99.90
22212;DHT22;11275;52.488;13.462;2023-07-29T15:13:24;25.10;99.90
22212;DHT22;11275;52.488;13.462;2023-07-29T15:15:49;25.10;99.90
22212;DHT22;11275;52.488;13.462;2023-07-29T15:18:16;25.10;99.90